首页
METAR-TAF:

METAR-TAF

机场 :

兰州中川国际机场

兰州, 中华人民共和国

纬度: 36-02N, 经度: 103-52E, 海拔: 1518米

当前天气观测

该预报发布于22分钟前的17:00 UTC
风速6节,风向
温度 9°C
湿度 71%
气压 1017 hPa
能见度10公里或以上
1500米以下无云,无积雨云

METAR: ZLLL 211700Z 18003MPS CAVOK 09/04 Q1017 NOSIG

时间: 01:22 (17:22 UTC)

预报

该预报发布于8小时和15分钟前的09:07 UTC
预报有效从21日的 12点(UTC)到 22日的 12点(UTC)
风速6节,风向
能見度: 6000
短暂存在
从 22日的 05点(UTC)到 22日的 11点(UTC)
风速19节,风向
少量云层高于3300英尺, 积雨云.
散云层高于4000英尺
雷暴, 小雨,

TAF: ZLLL 210907Z 2112/2212 36003MPS 6000 NSC TX17/2207Z TN05/2123Z TEMPO 2205/2211 35010MPS -TSRA FEW033CB SCT040

超过4000个机场的气象观测和天气预报(METAR&TAF报告)。

可查询的气象台以黄色和红色小点在地图上表示。

将鼠标移到小点上方,可查看气象台名称。

然后点击查看天气观测和预报。

如需切换地图:点击带黑十字的绿色按钮放大地图;点击带横线的绿色按钮缩小地图;或者点击绿色箭头查看邻近地区的地图。


METAR-TAF: